sensor_id;sensor_type;location;lat;lon;timestamp;P1;durP1;ratioP1;P2;durP2;ratioP2
73452;SDS011;61687;56.232;43.854;2024-03-02T00:02:15;88.53;;;33.40;;
73452;SDS011;61687;56.232;43.854;2024-03-02T00:04:44;76.40;;;33.33;;
73452;SDS011;61687;56.232;43.854;2024-03-02T00:07:10;83.45;;;32.83;;
73452;SDS011;61687;56.232;43.854;2024-03-02T00:09:40;83.82;;;33.00;;
73452;SDS011;61687;56.232;43.854;2024-03-02T00:12:06;82.13;;;31.70;;
73452;SDS011;61687;56.232;43.854;2024-03-02T00:14:33;74.28;;;31.52;;
73452;SDS011;61687;56.232;43.854;2024-03-02T00:16:59;75.40;;;31.50;;
73452;SDS011;61687;56.232;43.854;2024-03-02T00:19:25;82.18;;;34.72;;
73452;SDS011;61687;56.232;43.854;2024-03-02T00:21:51;85.72;;;32.88;;
73452;SDS011;61687;56.232;43.854;2024-03-02T00:24:21;77.65;;;32.60;;
73452;SDS011;61687;56.232;43.854;2024-03-02T00:26:57;72.13;;;31.97;;
73452;SDS011;61687;56.232;43.854;2024-03-02T00:29:23;82.53;;;32.67;;
73452;SDS011;61687;56.232;43.854;2024-03-02T00:31:50;81.97;;;34.08;;
73452;SDS011;61687;56.232;43.854;2024-03-02T00:34:16;78.25;;;32.58;;
73452;SDS011;61687;56.232;43.854;2024-03-02T00:36:42;85.70;;;32.28;;
73452;SDS011;61687;56.232;43.854;2024-03-02T00:39:08;87.17;;;32.90;;
73452;SDS011;61687;56.232;43.854;2024-03-02T00:41:40;81.35;;;32.85;;
73452;SDS011;61687;56.232;43.854;2024-03-02T00:44:07;80.78;;;34.30;;
73452;SDS011;61687;56.232;43.854;2024-03-02T00:46:40;83.38;;;33.78;;
73452;SDS011;61687;56.232;43.854;2024-03-02T00:51:44;77.25;;;33.83;;
73452;SDS011;61687;56.232;43.854;2024-03-02T00:54:14;85.75;;;32.58;;
73452;SDS011;61687;56.232;43.854;2024-03-02T00:56:41;82.15;;;34.38;;
73452;SDS011;61687;56.232;43.854;2024-03-02T00:59:07;80.30;;;34.47;;
73452;SDS011;61687;56.232;43.854;2024-03-02T01:01:34;81.22;;;34.30;;
73452;SDS011;61687;56.232;43.854;2024-03-02T01:04:00;78.22;;;30.85;;
73452;SDS011;61687;56.232;43.854;2024-03-02T01:06:26;82.88;;;34.08;;
73452;SDS011;61687;56.232;43.854;2024-03-02T01:08:53;77.78;;;32.90;;
73452;SDS011;61687;56.232;43.854;2024-03-02T01:11:19;80.20;;;33.88;;
73452;SDS011;61687;56.232;43.854;2024-03-02T01:13:47;84.65;;;34.33;;
73452;SDS011;61687;56.232;43.854;2024-03-02T01:16:13;81.00;;;34.95;;
73452;SDS011;61687;56.232;43.854;2024-03-02T01:18:41;82.75;;;35.80;;
73452;SDS011;61687;56.232;43.854;2024-03-02T01:21:07;77.85;;;35.15;;
73452;SDS011;61687;56.232;43.854;2024-03-02T01:23:33;80.30;;;32.97;;
73452;SDS011;61687;56.232;43.854;2024-03-02T01:25:59;81.70;;;34.42;;
73452;SDS011;61687;56.232;43.854;2024-03-02T01:28:25;79.00;;;34.60;;
73452;SDS011;61687;56.232;43.854;2024-03-02T01:30:51;81.05;;;33.42;;
73452;SDS011;61687;56.232;43.854;2024-03-02T01:33:19;75.63;;;34.30;;
73452;SDS011;61687;56.232;43.854;2024-03-02T01:35:46;82.15;;;32.97;;
73452;SDS011;61687;56.232;43.854;2024-03-02T01:38:13;79.50;;;35.20;;
73452;SDS011;61687;56.232;43.854;2024-03-02T01:40:39;84.47;;;34.92;;
73452;SDS011;61687;56.232;43.854;2024-03-02T01:43:05;85.07;;;35.90;;
73452;SDS011;61687;56.232;43.854;2024-03-02T01:45:32;81.35;;;35.05;;
73452;SDS011;61687;56.232;43.854;2024-03-02T01:47:58;82.93;;;35.63;;
73452;SDS011;61687;56.232;43.854;2024-03-02T01:50:28;90.32;;;37.97;;
73452;SDS011;61687;56.232;43.854;2024-03-02T01:52:56;92.72;;;36.80;;
73452;SDS011;61687;56.232;43.854;2024-03-02T01:55:22;87.68;;;36.83;;
73452;SDS011;61687;56.232;43.854;2024-03-02T01:57:49;87.20;;;37.30;;
73452;SDS011;61687;56.232;43.854;2024-03-02T02:00:18;90.13;;;37.58;;
73452;SDS011;61687;56.232;43.854;2024-03-02T02:02:45;89.60;;;35.90;;
73452;SDS011;61687;56.232;43.854;2024-03-02T02:05:13;87.80;;;35.65;;
73452;SDS011;61687;56.232;43.854;2024-03-02T02:07:40;88.85;;;35.17;;
73452;SDS011;61687;56.232;43.854;2024-03-02T02:10:07;83.72;;;35.17;;
73452;SDS011;61687;56.232;43.854;2024-03-02T02:12:34;87.47;;;35.75;;
73452;SDS011;61687;56.232;43.854;2024-03-02T02:15:02;93.50;;;37.22;;
73452;SDS011;61687;56.232;43.854;2024-03-02T02:17:31;98.40;;;35.35;;
73452;SDS011;61687;56.232;43.854;2024-03-02T02:19:57;98.90;;;37.67;;
73452;SDS011;61687;56.232;43.854;2024-03-02T02:22:23;98.05;;;35.63;;
73452;SDS011;61687;56.232;43.854;2024-03-02T02:24:49;91.95;;;34.30;;
73452;SDS011;61687;56.232;43.854;2024-03-02T02:27:14;95.47;;;35.15;;
73452;SDS011;61687;56.232;43.854;2024-03-02T02:29:41;90.33;;;33.93;;
73452;SDS011;61687;56.232;43.854;2024-03-02T02:32:07;96.15;;;36.05;;
73452;SDS011;61687;56.232;43.854;2024-03-02T02:34:33;103.68;;;37.25;;
73452;SDS011;61687;56.232;43.854;2024-03-02T02:36:59;95.20;;;33.92;;
73452;SDS011;61687;56.232;43.854;2024-03-02T02:39:26;95.35;;;36.58;;
73452;SDS011;61687;56.232;43.854;2024-03-02T02:41:52;96.00;;;35.33;;
73452;SDS011;61687;56.232;43.854;2024-03-02T02:44:18;94.70;;;35.13;;
73452;SDS011;61687;56.232;43.854;2024-03-02T02:46:44;99.97;;;35.60;;
73452;SDS011;61687;56.232;43.854;2024-03-02T02:49:10;101.00;;;34.57;;
73452;SDS011;61687;56.232;43.854;2024-03-02T02:51:36;102.70;;;37.22;;
73452;SDS011;61687;56.232;43.854;2024-03-02T02:54:02;96.43;;;36.40;;
73452;SDS011;61687;56.232;43.854;2024-03-02T02:56:27;103.43;;;36.50;;
73452;SDS011;61687;56.232;43.854;2024-03-02T02:58:53;98.93;;;35.93;;
73452;SDS011;61687;56.232;43.854;2024-03-02T03:01:19;106.55;;;36.10;;
73452;SDS011;61687;56.232;43.854;2024-03-02T03:03:45;96.53;;;36.05;;
73452;SDS011;61687;56.232;43.854;2024-03-02T03:06:11;102.63;;;36.17;;
73452;SDS011;61687;56.232;43.854;2024-03-02T03:08:38;100.00;;;36.63;;
73452;SDS011;61687;56.232;43.854;2024-03-02T03:11:04;101.90;;;38.30;;
73452;SDS011;61687;56.232;43.854;2024-03-02T03:13:33;100.13;;;37.25;;
73452;SDS011;61687;56.232;43.854;2024-03-02T03:16:00;106.18;;;39.42;;
73452;SDS011;61687;56.232;43.854;2024-03-02T03:18:26;98.27;;;37.07;;
73452;SDS011;61687;56.232;43.854;2024-03-02T03:20:52;96.93;;;38.03;;
73452;SDS011;61687;56.232;43.854;2024-03-02T03:23:18;91.90;;;36.72;;
73452;SDS011;61687;56.232;43.854;2024-03-02T03:25:44;90.80;;;36.88;;
73452;SDS011;61687;56.232;43.854;2024-03-02T03:28:10;97.20;;;37.33;;
73452;SDS011;61687;56.232;43.854;2024-03-02T03:30:36;98.03;;;35.95;;
73452;SDS011;61687;56.232;43.854;2024-03-02T03:33:04;95.85;;;37.58;;
73452;SDS011;61687;56.232;43.854;2024-03-02T03:35:33;95.55;;;38.20;;
73452;SDS011;61687;56.232;43.854;2024-03-02T03:38:00;94.18;;;35.97;;
73452;SDS011;61687;56.232;43.854;2024-03-02T03:40:26;95.17;;;36.63;;
73452;SDS011;61687;56.232;43.854;2024-03-02T03:42:52;91.72;;;38.03;;
73452;SDS011;61687;56.232;43.854;2024-03-02T03:45:19;87.63;;;35.35;;
73452;SDS011;61687;56.232;43.854;2024-03-02T03:47:45;94.88;;;36.55;;
73452;SDS011;61687;56.232;43.854;2024-03-02T03:50:11;92.07;;;37.17;;
73452;SDS011;61687;56.232;43.854;2024-03-02T03:52:38;104.18;;;37.65;;
73452;SDS011;61687;56.232;43.854;2024-03-02T03:55:04;90.63;;;35.85;;
73452;SDS011;61687;56.232;43.854;2024-03-02T03:57:33;98.72;;;36.60;;
73452;SDS011;61687;56.232;43.854;2024-03-02T03:59:59;104.50;;;37.83;;
73452;SDS011;61687;56.232;43.854;2024-03-02T04:02:26;99.90;;;36.88;;
73452;SDS011;61687;56.232;43.854;2024-03-02T04:04:51;94.97;;;37.75;;
73452;SDS011;61687;56.232;43.854;2024-03-02T04:07:17;93.28;;;36.70;;
73452;SDS011;61687;56.232;43.854;2024-03-02T04:09:43;93.90;;;36.73;;
73452;SDS011;61687;56.232;43.854;2024-03-02T04:12:09;92.70;;;38.03;;
73452;SDS011;61687;56.232;43.854;2024-03-02T04:14:35;91.63;;;36.30;;
73452;SDS011;61687;56.232;43.854;2024-03-02T04:17:03;91.80;;;36.05;;
73452;SDS011;61687;56.232;43.854;2024-03-02T04:19:29;93.33;;;35.57;;
73452;SDS011;61687;56.232;43.854;2024-03-02T04:21:55;99.43;;;37.97;;
73452;SDS011;61687;56.232;43.854;2024-03-02T04:24:21;96.28;;;37.72;;
73452;SDS011;61687;56.232;43.854;2024-03-02T04:26:47;91.65;;;35.83;;
73452;SDS011;61687;56.232;43.854;2024-03-02T04:29:12;88.13;;;34.67;;
73452;SDS011;61687;56.232;43.854;2024-03-02T04:31:38;92.93;;;37.22;;
73452;SDS011;61687;56.232;43.854;2024-03-02T04:34:04;85.43;;;34.35;;
73452;SDS011;61687;56.232;43.854;2024-03-02T04:36:30;92.93;;;37.20;;
73452;SDS011;61687;56.232;43.854;2024-03-02T04:38:56;100.90;;;37.40;;
73452;SDS011;61687;56.232;43.854;2024-03-02T04:41:22;87.95;;;35.05;;
73452;SDS011;61687;56.232;43.854;2024-03-02T04:43:48;85.47;;;35.50;;
73452;SDS011;61687;56.232;43.854;2024-03-02T04:46:14;88.22;;;35.42;;
73452;SDS011;61687;56.232;43.854;2024-03-02T04:48:40;82.65;;;33.30;;
73452;SDS011;61687;56.232;43.854;2024-03-02T04:51:07;89.93;;;36.97;;
73452;SDS011;61687;56.232;43.854;2024-03-02T04:53:33;86.50;;;34.93;;
73452;SDS011;61687;56.232;43.854;2024-03-02T04:55:59;88.47;;;34.33;;
73452;SDS011;61687;56.232;43.854;2024-03-02T04:58:43;87.45;;;34.30;;
73452;SDS011;61687;56.232;43.854;2024-03-02T05:01:09;84.80;;;33.03;;
73452;SDS011;61687;56.232;43.854;2024-03-02T05:03:36;87.70;;;34.37;;
73452;SDS011;61687;56.232;43.854;2024-03-02T05:06:02;94.20;;;34.83;;
73452;SDS011;61687;56.232;43.854;2024-03-02T05:08:28;85.80;;;35.47;;
73452;SDS011;61687;56.232;43.854;2024-03-02T05:10:53;89.95;;;36.50;;
73452;SDS011;61687;56.232;43.854;2024-03-02T05:13:19;87.50;;;35.30;;
73452;SDS011;61687;56.232;43.854;2024-03-02T05:15:46;85.45;;;35.08;;
73452;SDS011;61687;56.232;43.854;2024-03-02T05:18:12;86.65;;;35.10;;
73452;SDS011;61687;56.232;43.854;2024-03-02T05:20:38;90.80;;;36.20;;
73452;SDS011;61687;56.232;43.854;2024-03-02T05:23:04;83.30;;;34.03;;
73452;SDS011;61687;56.232;43.854;2024-03-02T05:25:30;92.63;;;36.08;;
73452;SDS011;61687;56.232;43.854;2024-03-02T05:27:56;82.50;;;34.47;;
73452;SDS011;61687;56.232;43.854;2024-03-02T05:30:22;91.77;;;37.00;;
73452;SDS011;61687;56.232;43.854;2024-03-02T05:32:48;88.80;;;35.60;;
73452;SDS011;61687;56.232;43.854;2024-03-02T05:35:14;92.32;;;36.53;;
73452;SDS011;61687;56.232;43.854;2024-03-02T05:37:40;87.32;;;36.05;;
73452;SDS011;61687;56.232;43.854;2024-03-02T05:40:06;91.60;;;37.00;;
73452;SDS011;61687;56.232;43.854;2024-03-02T05:42:32;86.35;;;33.65;;
73452;SDS011;61687;56.232;43.854;2024-03-02T05:44:58;87.82;;;35.13;;
73452;SDS011;61687;56.232;43.854;2024-03-02T05:47:24;85.63;;;35.57;;
73452;SDS011;61687;56.232;43.854;2024-03-02T05:49:49;85.78;;;35.13;;
73452;SDS011;61687;56.232;43.854;2024-03-02T05:52:15;93.25;;;35.50;;
73452;SDS011;61687;56.232;43.854;2024-03-02T05:54:41;90.43;;;37.33;;
73452;SDS011;61687;56.232;43.854;2024-03-02T05:57:07;84.07;;;35.17;;
73452;SDS011;61687;56.232;43.854;2024-03-02T05:59:47;86.27;;;34.20;;
73452;SDS011;61687;56.232;43.854;2024-03-02T06:02:13;92.00;;;34.22;;
73452;SDS011;61687;56.232;43.854;2024-03-02T06:04:39;99.82;;;35.72;;
73452;SDS011;61687;56.232;43.854;2024-03-02T06:07:05;91.10;;;34.00;;
73452;SDS011;61687;56.232;43.854;2024-03-02T06:09:31;93.63;;;35.90;;
73452;SDS011;61687;56.232;43.854;2024-03-02T06:11:57;92.25;;;35.33;;
73452;SDS011;61687;56.232;43.854;2024-03-02T06:14:22;95.93;;;35.83;;
73452;SDS011;61687;56.232;43.854;2024-03-02T06:16:48;92.97;;;36.85;;
73452;SDS011;61687;56.232;43.854;2024-03-02T06:19:14;95.35;;;35.33;;
73452;SDS011;61687;56.232;43.854;2024-03-02T06:21:40;102.13;;;35.97;;
73452;SDS011;61687;56.232;43.854;2024-03-02T06:24:06;93.45;;;36.33;;
73452;SDS011;61687;56.232;43.854;2024-03-02T06:26:32;95.93;;;38.17;;
73452;SDS011;61687;56.232;43.854;2024-03-02T06:28:58;88.10;;;36.10;;
73452;SDS011;61687;56.232;43.854;2024-03-02T06:31:24;94.13;;;36.15;;
73452;SDS011;61687;56.232;43.854;2024-03-02T06:33:50;98.78;;;36.17;;
73452;SDS011;61687;56.232;43.854;2024-03-02T06:36:16;96.60;;;36.80;;
73452;SDS011;61687;56.232;43.854;2024-03-02T06:38:42;90.07;;;35.25;;
73452;SDS011;61687;56.232;43.854;2024-03-02T06:41:08;86.95;;;33.65;;
73452;SDS011;61687;56.232;43.854;2024-03-02T06:43:34;97.63;;;35.90;;
73452;SDS011;61687;56.232;43.854;2024-03-02T06:46:00;90.78;;;35.92;;
73452;SDS011;61687;56.232;43.854;2024-03-02T06:48:27;91.47;;;35.58;;
73452;SDS011;61687;56.232;43.854;2024-03-02T06:50:54;91.83;;;34.53;;
73452;SDS011;61687;56.232;43.854;2024-03-02T06:53:21;89.57;;;34.30;;
73452;SDS011;61687;56.232;43.854;2024-03-02T06:55:48;86.65;;;34.17;;
73452;SDS011;61687;56.232;43.854;2024-03-02T06:58:14;84.82;;;34.50;;
73452;SDS011;61687;56.232;43.854;2024-03-02T07:00:43;85.65;;;34.33;;
73452;SDS011;61687;56.232;43.854;2024-03-02T07:03:11;81.47;;;32.23;;
73452;SDS011;61687;56.232;43.854;2024-03-02T07:05:38;88.38;;;33.25;;
73452;SDS011;61687;56.232;43.854;2024-03-02T07:08:04;73.38;;;31.27;;
73452;SDS011;61687;56.232;43.854;2024-03-02T07:10:31;77.82;;;31.17;;
73452;SDS011;61687;56.232;43.854;2024-03-02T07:12:57;72.40;;;29.90;;
73452;SDS011;61687;56.232;43.854;2024-03-02T07:15:23;67.28;;;28.38;;
73452;SDS011;61687;56.232;43.854;2024-03-02T07:18:09;64.47;;;27.98;;
73452;SDS011;61687;56.232;43.854;2024-03-02T07:20:35;69.68;;;26.58;;
73452;SDS011;61687;56.232;43.854;2024-03-02T07:23:01;63.23;;;24.80;;
73452;SDS011;61687;56.232;43.854;2024-03-02T07:25:26;61.65;;;26.00;;
73452;SDS011;61687;56.232;43.854;2024-03-02T07:27:53;68.68;;;26.92;;
73452;SDS011;61687;56.232;43.854;2024-03-02T07:30:19;66.90;;;25.88;;
73452;SDS011;61687;56.232;43.854;2024-03-02T07:32:45;61.80;;;24.70;;
73452;SDS011;61687;56.232;43.854;2024-03-02T07:35:12;63.05;;;26.45;;
73452;SDS011;61687;56.232;43.854;2024-03-02T07:37:38;59.75;;;23.95;;
73452;SDS011;61687;56.232;43.854;2024-03-02T07:40:05;62.03;;;25.60;;
73452;SDS011;61687;56.232;43.854;2024-03-02T07:42:34;60.47;;;26.00;;
73452;SDS011;61687;56.232;43.854;2024-03-02T07:45:00;62.83;;;24.98;;
73452;SDS011;61687;56.232;43.854;2024-03-02T07:47:29;66.32;;;26.60;;
73452;SDS011;61687;56.232;43.854;2024-03-02T07:49:55;61.27;;;25.67;;
73452;SDS011;61687;56.232;43.854;2024-03-02T07:52:21;64.30;;;28.65;;
73452;SDS011;61687;56.232;43.854;2024-03-02T07:54:47;60.53;;;25.65;;
73452;SDS011;61687;56.232;43.854;2024-03-02T07:57:13;62.13;;;25.87;;
73452;SDS011;61687;56.232;43.854;2024-03-02T07:59:39;67.18;;;28.40;;
73452;SDS011;61687;56.232;43.854;2024-03-02T08:02:05;68.72;;;29.25;;
73452;SDS011;61687;56.232;43.854;2024-03-02T08:04:31;71.95;;;28.73;;
73452;SDS011;61687;56.232;43.854;2024-03-02T08:06:57;75.37;;;30.00;;
73452;SDS011;61687;56.232;43.854;2024-03-02T08:09:23;70.18;;;29.10;;
73452;SDS011;61687;56.232;43.854;2024-03-02T08:11:49;76.68;;;30.55;;
73452;SDS011;61687;56.232;43.854;2024-03-02T08:14:15;72.63;;;30.07;;
73452;SDS011;61687;56.232;43.854;2024-03-02T08:16:41;67.90;;;29.25;;
73452;SDS011;61687;56.232;43.854;2024-03-02T08:19:07;69.70;;;29.05;;
73452;SDS011;61687;56.232;43.854;2024-03-02T08:21:34;69.53;;;28.92;;
73452;SDS011;61687;56.232;43.854;2024-03-02T08:24:01;72.67;;;29.27;;
73452;SDS011;61687;56.232;43.854;2024-03-02T08:26:28;73.15;;;29.70;;
73452;SDS011;61687;56.232;43.854;2024-03-02T08:28:55;74.22;;;29.65;;
73452;SDS011;61687;56.232;43.854;2024-03-02T08:31:21;71.80;;;30.10;;
73452;SDS011;61687;56.232;43.854;2024-03-02T08:33:47;65.87;;;29.27;;
73452;SDS011;61687;56.232;43.854;2024-03-02T08:36:13;69.40;;;29.02;;
73452;SDS011;61687;56.232;43.854;2024-03-02T08:38:39;70.53;;;29.08;;
73452;SDS011;61687;56.232;43.854;2024-03-02T08:41:05;73.88;;;30.20;;
73452;SDS011;61687;56.232;43.854;2024-03-02T08:43:32;67.97;;;28.60;;
73452;SDS011;61687;56.232;43.854;2024-03-02T08:45:59;65.53;;;29.77;;
73452;SDS011;61687;56.232;43.854;2024-03-02T08:48:24;65.22;;;29.45;;
73452;SDS011;61687;56.232;43.854;2024-03-02T08:50:50;66.28;;;29.27;;
73452;SDS011;61687;56.232;43.854;2024-03-02T08:53:16;67.80;;;28.98;;
73452;SDS011;61687;56.232;43.854;2024-03-02T08:55:47;68.10;;;28.70;;
73452;SDS011;61687;56.232;43.854;2024-03-02T08:58:13;67.10;;;28.52;;
73452;SDS011;61687;56.232;43.854;2024-03-02T09:00:38;72.27;;;30.50;;
73452;SDS011;61687;56.232;43.854;2024-03-02T09:03:05;71.03;;;28.42;;
73452;SDS011;61687;56.232;43.854;2024-03-02T09:05:31;69.35;;;31.17;;
73452;SDS011;61687;56.232;43.854;2024-03-02T09:07:56;70.57;;;30.43;;
73452;SDS011;61687;56.232;43.854;2024-03-02T09:10:23;75.75;;;30.95;;
73452;SDS011;61687;56.232;43.854;2024-03-02T09:12:49;70.07;;;30.27;;
73452;SDS011;61687;56.232;43.854;2024-03-02T09:15:15;74.90;;;31.77;;
73452;SDS011;61687;56.232;43.854;2024-03-02T09:17:41;76.68;;;33.47;;
73452;SDS011;61687;56.232;43.854;2024-03-02T09:20:07;73.10;;;33.13;;
73452;SDS011;61687;56.232;43.854;2024-03-02T09:22:33;74.63;;;32.70;;
73452;SDS011;61687;56.232;43.854;2024-03-02T09:24:59;69.53;;;28.98;;
73452;SDS011;61687;56.232;43.854;2024-03-02T09:27:24;68.10;;;28.87;;
73452;SDS011;61687;56.232;43.854;2024-03-02T09:29:51;71.80;;;29.88;;
73452;SDS011;61687;56.232;43.854;2024-03-02T09:32:16;63.90;;;27.60;;
73452;SDS011;61687;56.232;43.854;2024-03-02T09:34:42;64.83;;;27.40;;
73452;SDS011;61687;56.232;43.854;2024-03-02T09:37:08;60.58;;;26.50;;
73452;SDS011;61687;56.232;43.854;2024-03-02T09:39:34;66.25;;;29.85;;
73452;SDS011;61687;56.232;43.854;2024-03-02T09:42:00;68.80;;;29.70;;
73452;SDS011;61687;56.232;43.854;2024-03-02T09:44:26;71.68;;;30.85;;
73452;SDS011;61687;56.232;43.854;2024-03-02T09:46:52;78.82;;;32.72;;
73452;SDS011;61687;56.232;43.854;2024-03-02T09:49:18;74.15;;;31.77;;
73452;SDS011;61687;56.232;43.854;2024-03-02T09:51:46;72.00;;;29.73;;
73452;SDS011;61687;56.232;43.854;2024-03-02T09:54:17;66.43;;;28.85;;
73452;SDS011;61687;56.232;43.854;2024-03-02T09:56:44;63.97;;;28.95;;
73452;SDS011;61687;56.232;43.854;2024-03-02T09:59:11;72.05;;;30.65;;
73452;SDS011;61687;56.232;43.854;2024-03-02T10:01:38;75.75;;;29.42;;
73452;SDS011;61687;56.232;43.854;2024-03-02T10:04:04;69.83;;;28.93;;
73452;SDS011;61687;56.232;43.854;2024-03-02T10:06:31;74.60;;;31.70;;
73452;SDS011;61687;56.232;43.854;2024-03-02T10:08:57;74.57;;;31.52;;
73452;SDS011;61687;56.232;43.854;2024-03-02T10:11:27;74.15;;;32.20;;
73452;SDS011;61687;56.232;43.854;2024-03-02T10:14:12;80.57;;;31.97;;
73452;SDS011;61687;56.232;43.854;2024-03-02T10:19:18;77.65;;;31.42;;
73452;SDS011;61687;56.232;43.854;2024-03-02T10:21:46;67.88;;;29.05;;
73452;SDS011;61687;56.232;43.854;2024-03-02T10:24:13;68.57;;;28.25;;
73452;SDS011;61687;56.232;43.854;2024-03-02T10:26:39;70.40;;;29.17;;
73452;SDS011;61687;56.232;43.854;2024-03-02T10:29:05;68.30;;;28.20;;
73452;SDS011;61687;56.232;43.854;2024-03-02T10:31:31;67.10;;;27.90;;
73452;SDS011;61687;56.232;43.854;2024-03-02T10:33:58;63.50;;;27.42;;
73452;SDS011;61687;56.232;43.854;2024-03-02T10:36:25;75.85;;;31.05;;
73452;SDS011;61687;56.232;43.854;2024-03-02T10:38:51;68.45;;;29.75;;
73452;SDS011;61687;56.232;43.854;2024-03-02T10:41:23;74.65;;;29.98;;
73452;SDS011;61687;56.232;43.854;2024-03-02T10:43:52;67.60;;;29.35;;
73452;SDS011;61687;56.232;43.854;2024-03-02T10:46:27;79.13;;;30.40;;
73452;SDS011;61687;56.232;43.854;2024-03-02T10:48:55;66.22;;;27.83;;
73452;SDS011;61687;56.232;43.854;2024-03-02T10:51:28;67.55;;;28.17;;
73452;SDS011;61687;56.232;43.854;2024-03-02T10:53:58;71.35;;;32.15;;
73452;SDS011;61687;56.232;43.854;2024-03-02T10:56:30;74.82;;;30.98;;
73452;SDS011;61687;56.232;43.854;2024-03-02T10:59:17;76.55;;;32.17;;
73452;SDS011;61687;56.232;43.854;2024-03-02T11:01:58;78.22;;;33.33;;
73452;SDS011;61687;56.232;43.854;2024-03-02T11:04:26;76.43;;;32.10;;
73452;SDS011;61687;56.232;43.854;2024-03-02T11:07:02;73.35;;;28.92;;
73452;SDS011;61687;56.232;43.854;2024-03-02T11:09:33;64.57;;;29.20;;
73452;SDS011;61687;56.232;43.854;2024-03-02T11:12:13;74.38;;;30.52;;
73452;SDS011;61687;56.232;43.854;2024-03-02T11:14:45;73.00;;;27.30;;
73452;SDS011;61687;56.232;43.854;2024-03-02T11:17:11;62.65;;;26.50;;
73452;SDS011;61687;56.232;43.854;2024-03-02T11:19:41;62.92;;;27.17;;
73452;SDS011;61687;56.232;43.854;2024-03-02T11:22:08;71.63;;;28.50;;
73452;SDS011;61687;56.232;43.854;2024-03-02T11:24:35;63.10;;;28.35;;
73452;SDS011;61687;56.232;43.854;2024-03-02T11:27:02;59.55;;;25.33;;
73452;SDS011;61687;56.232;43.854;2024-03-02T11:32:17;55.55;;;27.00;;
73452;SDS011;61687;56.232;43.854;2024-03-02T11:34:47;53.63;;;25.48;;
73452;SDS011;61687;56.232;43.854;2024-03-02T11:37:18;55.38;;;24.83;;
73452;SDS011;61687;56.232;43.854;2024-03-02T11:39:51;56.75;;;25.77;;
73452;SDS011;61687;56.232;43.854;2024-03-02T11:42:17;54.40;;;25.85;;
73452;SDS011;61687;56.232;43.854;2024-03-02T11:44:47;51.78;;;23.27;;
73452;SDS011;61687;56.232;43.854;2024-03-02T11:47:14;51.78;;;25.55;;
73452;SDS011;61687;56.232;43.854;2024-03-02T11:49:42;51.33;;;24.05;;
73452;SDS011;61687;56.232;43.854;2024-03-02T11:52:12;55.22;;;25.77;;
73452;SDS011;61687;56.232;43.854;2024-03-02T11:54:40;50.08;;;24.45;;
73452;SDS011;61687;56.232;43.854;2024-03-02T11:57:16;48.38;;;25.20;;
73452;SDS011;61687;56.232;43.854;2024-03-02T11:59:48;56.60;;;26.48;;
73452;SDS011;61687;56.232;43.854;2024-03-02T12:02:20;55.30;;;25.13;;
73452;SDS011;61687;56.232;43.854;2024-03-02T12:04:47;50.28;;;21.63;;
73452;SDS011;61687;56.232;43.854;2024-03-02T12:07:23;59.83;;;28.73;;
73452;SDS011;61687;56.232;43.854;2024-03-02T12:09:59;54.75;;;26.02;;
73452;SDS011;61687;56.232;43.854;2024-03-02T12:12:30;53.90;;;26.73;;
73452;SDS011;61687;56.232;43.854;2024-03-02T12:14:56;59.00;;;26.55;;
73452;SDS011;61687;56.232;43.854;2024-03-02T12:17:22;58.30;;;28.05;;
73452;SDS011;61687;56.232;43.854;2024-03-02T12:19:48;58.20;;;26.60;;
73452;SDS011;61687;56.232;43.854;2024-03-02T12:22:14;60.00;;;26.83;;
73452;SDS011;61687;56.232;43.854;2024-03-02T12:24:41;59.60;;;25.83;;
73452;SDS011;61687;56.232;43.854;2024-03-02T12:27:11;54.00;;;25.30;;
73452;SDS011;61687;56.232;43.854;2024-03-02T12:29:39;54.65;;;26.38;;
73452;SDS011;61687;56.232;43.854;2024-03-02T12:32:05;60.08;;;27.35;;
73452;SDS011;61687;56.232;43.854;2024-03-02T12:34:31;52.50;;;25.05;;
73452;SDS011;61687;56.232;43.854;2024-03-02T12:36:58;60.60;;;26.77;;
73452;SDS011;61687;56.232;43.854;2024-03-02T12:39:24;53.80;;;23.90;;
73452;SDS011;61687;56.232;43.854;2024-03-02T12:41:50;57.85;;;28.30;;
73452;SDS011;61687;56.232;43.854;2024-03-02T12:44:17;59.60;;;28.30;;
73452;SDS011;61687;56.232;43.854;2024-03-02T12:46:46;48.17;;;24.58;;
73452;SDS011;61687;56.232;43.854;2024-03-02T12:49:13;49.65;;;24.88;;
73452;SDS011;61687;56.232;43.854;2024-03-02T12:51:43;52.75;;;28.17;;
73452;SDS011;61687;56.232;43.854;2024-03-02T12:54:12;49.85;;;25.75;;
73452;SDS011;61687;56.232;43.854;2024-03-02T12:56:40;44.72;;;22.77;;
73452;SDS011;61687;56.232;43.854;2024-03-02T12:59:18;42.47;;;21.80;;
73452;SDS011;61687;56.232;43.854;2024-03-02T13:01:53;45.87;;;21.90;;
73452;SDS011;61687;56.232;43.854;2024-03-02T13:04:27;39.45;;;20.95;;
73452;SDS011;61687;56.232;43.854;2024-03-02T13:06:55;44.80;;;22.30;;
73452;SDS011;61687;56.232;43.854;2024-03-02T13:09:24;44.60;;;20.85;;
73452;SDS011;61687;56.232;43.854;2024-03-02T13:11:50;36.63;;;19.92;;
73452;SDS011;61687;56.232;43.854;2024-03-02T13:14:16;89.23;;;40.63;;
73452;SDS011;61687;56.232;43.854;2024-03-02T13:16:42;66.28;;;30.35;;
73452;SDS011;61687;56.232;43.854;2024-03-02T13:19:10;33.83;;;19.20;;
73452;SDS011;61687;56.232;43.854;2024-03-02T13:21:37;34.33;;;19.35;;
73452;SDS011;61687;56.232;43.854;2024-03-02T13:24:04;37.67;;;19.43;;
73452;SDS011;61687;56.232;43.854;2024-03-02T13:26:30;38.53;;;19.13;;
73452;SDS011;61687;56.232;43.854;2024-03-02T13:28:56;37.13;;;19.10;;
73452;SDS011;61687;56.232;43.854;2024-03-02T13:31:22;38.83;;;21.77;;
73452;SDS011;61687;56.232;43.854;2024-03-02T13:33:48;41.70;;;21.30;;
73452;SDS011;61687;56.232;43.854;2024-03-02T13:36:14;46.95;;;22.08;;
73452;SDS011;61687;56.232;43.854;2024-03-02T13:38:40;38.40;;;20.00;;
73452;SDS011;61687;56.232;43.854;2024-03-02T13:41:06;35.23;;;18.53;;
73452;SDS011;61687;56.232;43.854;2024-03-02T13:43:32;38.10;;;19.10;;
73452;SDS011;61687;56.232;43.854;2024-03-02T13:45:58;42.42;;;20.15;;
73452;SDS011;61687;56.232;43.854;2024-03-02T13:48:24;46.10;;;21.00;;
73452;SDS011;61687;56.232;43.854;2024-03-02T13:50:53;50.35;;;22.52;;
73452;SDS011;61687;56.232;43.854;2024-03-02T13:53:19;46.13;;;21.63;;
73452;SDS011;61687;56.232;43.854;2024-03-02T13:55:46;43.10;;;22.10;;
73452;SDS011;61687;56.232;43.854;2024-03-02T13:58:12;45.33;;;22.02;;
73452;SDS011;61687;56.232;43.854;2024-03-02T14:00:38;45.08;;;22.20;;
73452;SDS011;61687;56.232;43.854;2024-03-02T14:03:05;45.50;;;22.60;;
73452;SDS011;61687;56.232;43.854;2024-03-02T14:05:32;42.05;;;21.33;;
73452;SDS011;61687;56.232;43.854;2024-03-02T14:07:58;41.88;;;21.95;;
73452;SDS011;61687;56.232;43.854;2024-03-02T14:10:26;42.15;;;20.70;;
73452;SDS011;61687;56.232;43.854;2024-03-02T14:12:53;44.85;;;20.55;;
73452;SDS011;61687;56.232;43.854;2024-03-02T14:15:21;42.38;;;21.75;;
73452;SDS011;61687;56.232;43.854;2024-03-02T14:17:47;43.30;;;19.80;;